UMGG

Gomel Airport

Gomel, Belarus
TAF UMGG 212300Z 2200/2224 16007MPS 6000 SCT025 TEMPO 2200/2206 1200 BR FU BKN004 FM220600 19007G12MPS 9999 BKN025 TEMPO 2206/2214 21010G15MPS SCT015CB BECMG 2214/2215 25007MPS TEMPO 2215/2224 31011G14MPS 2000 SHRA BKN005 BKN015CB
Issued Valid From Valid To
Sep-21 @ 23:00 UTC
(4 hours ago)
Sep-22 @ 00:00 UTC
(3 hours ago)
Sep-23 @ 00:00 UTC
(in 21 hours)
to
to
to
to
to
to
TAF UMGG 212300Z 2200/2224 16007MPS 6000 SCT025 TEMPO 2200/2206 1200 BR FU BKN004 FM220600 19007G12MPS 9999 BKN025 TEMPO 2206/2214 21010G15MPS SCT015CB BECMG 2214/2215 25007MPS TEMPO 2215/2224 31011G14MPS 2000 SHRA BKN005 BKN015CB
Issued Sep-21 @ 23:00 UTC
(4 hours ago)
Valid From Sep-22 @ 00:00 UTC
(3 hours ago)
Valid To Sep-23 @ 00:00 UTC
(in 21 hours)
-
-
-
-
-
-